Time;durP1;ratioP1;P1;durP2;ratioP2;P2;SDS_P1;SDS_P2;PMS_P1;PMS_P2;Temp;Humidity;BMP_temperature;BMP_pressure;BME280_temperature;BME280_humidity;BME280_pressure;Samples;Min_cycle;Max_cycle;Signal;HPM_P1;HPM_P2
2022/10/19 00:00:24;;;;;;;15.65;6.10;;;;;;;10.59;100.00;100773.03;5114164;28;20032;-74
2022/10/19 00:02:49;;;;;;;13.27;6.47;;;;;;;10.62;100.00;100773.00;5095728;28;20401;-75
2022/10/19 00:05:15;;;;;;;9.63;6.03;;;;;;;10.32;100.00;100759.84;5113236;28;20031;-74
2022/10/19 00:07:41;;;;;;;8.90;5.93;;;;;;;10.48;100.00;100765.53;5113705;28;20027;-74
2022/10/19 00:10:06;;;;;;;8.93;6.35;;;;;;;10.50;100.00;100753.66;5112779;28;20508;-74
2022/10/19 00:12:32;;;;;;;11.38;6.18;;;;;;;9.85;100.00;100698.66;5113218;28;20034;-74
2022/10/19 00:14:58;;;;;;;14.63;6.43;;;;;;;10.55;100.00;100754.44;5113185;28;20531;-74
2022/10/19 00:17:23;;;;;;;9.50;5.63;;;;;;;10.06;100.00;100678.03;5113141;28;20027;-74
2022/10/19 00:19:48;;;;;;;8.50;5.75;;;;;;;10.70;100.00;100743.16;5112733;28;20027;-73
2022/10/19 00:22:14;;;;;;;12.13;5.55;;;;;;;10.69;100.00;100759.31;5113292;28;20080;-74
2022/10/19 00:24:39;;;;;;;11.20;5.78;;;;;;;10.43;100.00;100735.13;5113005;28;20057;-74
2022/10/19 00:27:05;;;;;;;9.13;5.75;;;;;;;10.16;100.00;100740.59;5112857;28;20031;-74
2022/10/19 00:29:31;;;;;;;9.40;5.40;;;;;;;10.41;100.00;100733.47;5113245;28;20117;-74
2022/10/19 00:31:56;;;;;;;11.82;5.97;;;;;;;9.96;100.00;100647.75;5112767;28;20092;-74
2022/10/19 00:34:22;;;;;;;12.27;6.57;;;;;;;9.77;100.00;100651.38;5112407;28;20023;-73
2022/10/19 00:36:48;;;;;;;12.57;6.40;;;;;;;9.66;100.00;100679.47;5113286;28;20052;-74
2022/10/19 00:39:18;;;;;;;11.80;6.45;;;;;;;10.28;100.00;100716.72;5113056;28;20031;-74
2022/10/19 00:41:45;;;;;;;8.93;6.05;;;;;;;10.05;100.00;100706.84;5113250;28;20047;-74
2022/10/19 00:44:10;;;;;;;8.90;6.25;;;;;;;10.04;100.00;100717.06;5112058;28;20035;-74
2022/10/19 00:46:41;;;;;;;10.25;7.00;;;;;;;9.70;100.00;100716.66;5094763;28;20479;-75
2022/10/19 00:49:11;;;;;;;13.68;8.00;;;;;;;9.46;100.00;100709.31;5112805;28;20464;-75
2022/10/19 00:51:41;;;;;;;11.55;7.15;;;;;;;9.05;100.00;100638.75;5112080;28;20028;-76
2022/10/19 00:54:07;;;;;;;13.95;7.57;;;;;;;9.18;100.00;100698.66;5113166;28;20027;-75
2022/10/19 00:56:33;;;;;;;13.55;7.28;;;;;;;8.99;100.00;100689.56;5094501;28;20038;-75
2022/10/19 00:59:03;;;;;;;11.52;6.97;;;;;;;9.03;100.00;100710.66;5112263;28;20074;-77
2022/10/19 01:01:30;;;;;;;12.88;7.22;;;;;;;8.74;100.00;100663.59;5112385;28;20032;-75
2022/10/19 01:03:55;;;;;;;14.15;7.32;;;;;;;8.79;100.00;100644.97;5112475;28;20497;-75
2022/10/19 01:06:22;;;;;;;13.77;7.28;;;;;;;8.79;100.00;100677.94;5094165;28;20031;-75
2022/10/19 01:08:47;;;;;;;14.65;7.15;;;;;;;9.01;100.00;100679.41;5112564;28;20451;-75
2022/10/19 01:11:30;;;;;;;11.02;6.85;;;;;;;8.97;100.00;100690.44;5112198;28;20031;-77
2022/10/19 01:14:08;;;;;;;16.17;6.35;;;;;;;8.53;100.00;100688.28;5112483;28;20027;-75
2022/10/19 01:16:49;;;;;;;17.92;6.80;;;;;;;8.68;100.00;100683.09;5112808;28;20053;-75
2022/10/19 01:19:52;;;;;;;6.70;4.45;;;;;;;8.71;100.00;100683.88;5112856;28;20030;-75
2022/10/19 01:22:29;;;;;;;13.70;6.20;;;;;;;8.75;100.00;100680.47;5112883;28;20641;-75
2022/10/19 01:25:23;;;;;;;15.60;6.10;;;;;;;8.42;100.00;100631.78;5112573;28;20027;-75
2022/10/19 01:27:57;;;;;;;9.75;6.45;;;;;;;8.60;100.00;100673.03;5112696;28;20066;-75
2022/10/19 01:30:48;;;;;;;11.43;6.00;;;;;;;8.39;100.00;100678.28;5112651;28;20031;-77
2022/10/19 01:33:50;;;;;;;11.32;6.47;;;;;;;8.77;100.00;100671.16;5112941;28;20028;-74
2022/10/19 01:36:20;;;;;;;13.57;6.07;;;;;;;8.76;100.00;100610.34;5112115;28;20019;-74
2022/10/19 01:39:26;;;;;;;10.63;6.75;;;;;;;9.02;100.00;100661.63;5093978;28;20024;-75
2022/10/19 01:42:03;;;;;;;11.95;7.60;;;;;;;8.43;100.00;100657.13;5112540;28;20087;-75
2022/10/19 01:44:35;;;;;;;10.90;7.35;;;;;;;8.56;100.00;100645.19;5112426;28;20031;-75
2022/10/19 01:47:13;;;;;;;17.52;7.13;;;;;;;8.42;100.00;100641.91;5094153;28;20037;-77
2022/10/19 01:49:48;;;;;;;12.55;7.20;;;;;;;8.33;100.00;100654.69;5112456;28;20043;-75
2022/10/19 01:52:17;;;;;;;12.18;7.15;;;;;;;8.43;100.00;100641.94;5112304;28;20245;-73
2022/10/19 01:54:48;;;;;;;14.73;7.28;;;;;;;7.75;100.00;100533.56;5112177;28;20042;-77
2022/10/19 01:57:21;;;;;;;13.40;6.53;;;;;;;8.31;100.00;100652.16;5112707;28;20088;-78
2022/10/19 01:59:48;;;;;;;17.67;7.40;;;;;;;8.42;100.00;100662.19;5112146;28;20031;-74
2022/10/19 02:02:16;;;;;;;13.48;6.82;;;;;;;7.82;100.00;100587.53;5112591;28;20035;-76
2022/10/19 02:04:43;;;;;;;11.30;6.95;;;;;;;8.34;100.00;100651.31;5095752;28;20072;-75
2022/10/19 02:07:10;;;;;;;12.40;6.60;;;;;;;8.32;100.00;100642.88;5116563;28;20055;-77
2022/10/19 02:09:35;;;;;;;11.25;6.05;;;;;;;7.97;100.00;100578.97;5115697;28;20474;-77
2022/10/19 02:12:05;;;;;;;9.35;6.30;;;;;;;8.28;100.00;100643.75;5116163;28;20063;-77
2022/10/19 02:14:47;;;;;;;11.77;6.28;;;;;;;7.68;100.00;100632.31;5097530;28;20118;-77
2022/10/19 02:17:20;;;;;;;9.77;5.80;;;;;;;7.63;100.00;100639.06;5097861;28;20035;-77
2022/10/19 02:19:46;;;;;;;11.45;6.63;;;;;;;7.25;100.00;100560.88;5097629;28;20405;-81
2022/10/19 02:22:12;;;;;;;13.07;6.82;;;;;;;7.63;100.00;100626.44;5115490;28;20106;-77
2022/10/19 02:24:38;;;;;;;12.80;6.53;;;;;;;7.80;100.00;100576.56;5115545;28;20035;-76
2022/10/19 02:27:06;;;;;;;9.65;6.22;;;;;;;8.12;100.00;100629.50;5097634;28;20049;-76
2022/10/19 02:29:35;;;;;;;11.80;6.07;;;;;;;7.66;100.00;100624.75;5116064;28;20031;-77
2022/10/19 02:32:01;;;;;;;14.45;7.25;;;;;;;8.02;100.00;100622.81;5116269;28;20028;-77
2022/10/19 02:34:27;;;;;;;10.50;7.28;;;;;;;7.59;100.00;100549.72;5115979;28;20027;-76
2022/10/19 02:36:53;;;;;;;12.82;7.55;;;;;;;8.08;100.00;100627.84;5116029;28;20028;-77
2022/10/19 02:39:19;;;;;;;14.63;9.50;;;;;;;7.99;100.00;100631.25;5115477;28;20087;-77
2022/10/19 02:41:52;;;;;;;13.63;8.38;;;;;;;8.04;100.00;100632.09;5115995;28;20124;-75
2022/10/19 02:44:30;;;;;;;11.57;8.02;;;;;;;8.25;100.00;100629.41;5115748;28;20035;-75
2022/10/19 02:47:17;;;;;;;12.55;7.47;;;;;;;7.76;100.00;100635.66;5115574;28;20028;-75
2022/10/19 02:49:43;;;;;;;12.77;7.82;;;;;;;7.39;100.00;100579.34;5115122;28;20024;-74
2022/10/19 02:52:10;;;;;;;12.35;8.10;;;;;;;7.15;100.00;100498.56;5115606;28;20023;-76
2022/10/19 02:54:38;;;;;;;13.18;8.32;;;;;;;7.78;100.00;100629.69;5115540;28;20479;-76
2022/10/19 02:57:20;;;;;;;11.32;7.72;;;;;;;8.04;100.00;100624.50;5115318;28;20043;-75
2022/10/19 02:59:46;;;;;;;12.23;9.13;;;;;;;7.90;100.00;100628.81;5115544;28;20037;-75
2022/10/19 03:02:12;;;;;;;15.65;9.07;;;;;;;7.93;100.00;100621.19;5114679;28;20058;-75
2022/10/19 03:04:38;;;;;;;12.20;8.05;;;;;;;7.85;100.00;100621.25;5114921;28;20041;-78
2022/10/19 03:07:03;;;;;;;12.95;8.00;;;;;;;7.26;100.00;100537.28;5114945;28;20016;-75
2022/10/19 03:09:29;;;;;;;14.27;8.45;;;;;;;7.97;100.00;100622.84;5115182;28;20057;-75
2022/10/19 03:11:55;;;;;;;23.45;9.02;;;;;;;7.52;100.00;100563.25;5115053;28;20108;-75
2022/10/19 03:14:20;;;;;;;13.48;7.38;;;;;;;7.72;100.00;100613.75;5114199;28;20114;-76
2022/10/19 03:16:46;;;;;;;14.10;7.97;;;;;;;7.56;100.00;100610.47;5096559;28;20086;-76
2022/10/19 03:19:11;;;;;;;13.45;7.47;;;;;;;7.43;100.00;100611.38;5114323;28;20479;-76
2022/10/19 03:21:37;;;;;;;16.25;7.90;;;;;;;7.18;100.00;100622.44;5114806;28;20024;-76
2022/10/19 03:24:02;;;;;;;11.77;7.75;;;;;;;7.21;100.00;100578.63;5096598;28;20031;-76
2022/10/19 03:26:28;;;;;;;16.67;8.43;;;;;;;7.14;100.00;100618.25;5114678;28;20115;-76
2022/10/19 03:28:53;;;;;;;13.80;8.10;;;;;;;7.14;100.00;100609.81;5114434;28;20024;-77
2022/10/19 03:31:18;;;;;;;15.23;8.30;;;;;;;6.96;100.00;100562.69;5113856;28;20027;-75
2022/10/19 03:33:44;;;;;;;11.98;8.10;;;;;;;6.87;100.00;100561.03;5083772;28;20035;-76
2022/10/19 03:36:18;;;;;;;14.15;7.05;;;;;;;9.33;100.00;100598.69;5114503;28;20066;-76
2022/10/19 03:38:44;;;;;;;41.10;9.23;;;;;;;6.64;100.00;100554.38;5096040;28;20031;-75
2022/10/19 03:41:10;;;;;;;18.05;8.15;;;;;;;7.00;100.00;100607.34;5114428;28;20055;-76
2022/10/19 03:43:35;;;;;;;13.98;7.82;;;;;;;7.11;100.00;100607.31;5114024;28;20110;-74
2022/10/19 03:46:01;;;;;;;13.80;7.75;;;;;;;7.11;100.00;100556.75;5113386;28;20106;-73
2022/10/19 03:48:26;;;;;;;14.57;7.40;;;;;;;7.32;100.00;100597.09;5114027;28;20030;-74
2022/10/19 03:50:59;;;;;;;13.73;7.82;;;;;;;7.00;100.00;100580.38;5095092;28;20101;-74
2022/10/19 03:53:25;;;;;;;17.17;8.32;;;;;;;6.57;100.00;100477.81;5112162;28;20032;-73
2022/10/19 03:55:50;;;;;;;16.23;8.13;;;;;;;7.09;100.00;100589.59;5113385;28;20496;-75
2022/10/19 03:58:15;;;;;;;12.15;7.50;;;;;;;7.22;100.00;100585.34;5095063;28;20030;-74
2022/10/19 04:00:43;;;;;;;14.23;8.07;;;;;;;7.02;100.00;100567.72;5113877;28;20043;-75
2022/10/19 04:03:08;;;;;;;12.20;8.15;;;;;;;6.86;100.00;100534.09;5113149;28;20047;-73
2022/10/19 04:05:34;;;;;;;15.75;7.72;;;;;;;6.99;100.00;100487.69;5113595;28;20497;-75
2022/10/19 04:07:59;;;;;;;15.57;9.85;;;;;;;7.08;100.00;100534.84;5095435;28;20031;-73
2022/10/19 04:10:29;;;;;;;19.17;12.00;;;;;;;7.63;100.00;100560.66;5095226;28;20377;-79
2022/10/19 04:12:56;;;;;;;19.90;10.52;;;;;;;7.65;100.00;100572.44;5114222;28;20477;-80
2022/10/19 04:15:21;;;;;;;17.10;10.75;;;;;;;7.61;100.00;100572.47;5113833;28;20027;-73
2022/10/19 04:17:47;;;;;;;17.35;10.00;;;;;;;7.46;100.00;100563.31;5113068;28;20050;-75
2022/10/19 04:20:12;;;;;;;20.33;10.65;;;;;;;7.61;100.00;100567.41;5113446;28;20439;-78
2022/10/19 04:22:37;;;;;;;15.93;11.35;;;;;;;7.51;100.00;100556.50;5113661;28;20031;-79
2022/10/19 04:25:04;;;;;;;15.38;9.57;;;;;;;6.94;100.00;100476.78;5113508;28;20087;-81
2022/10/19 04:27:29;;;;;;;17.20;9.05;;;;;;;7.18;100.00;100505.28;5112014;28;20024;-76
2022/10/19 04:29:54;;;;;;;20.15;9.85;;;;;;;7.01;100.00;100500.34;5112097;28;20363;-77
2022/10/19 04:32:20;;;;;;;16.73;9.55;;;;;;;7.26;100.00;100491.78;5111967;28;20052;-75
2022/10/19 04:34:45;;;;;;;17.17;11.48;;;;;;;6.67;100.00;100499.66;5112639;28;20460;-78
2022/10/19 04:37:10;;;;;;;19.58;10.50;;;;;;;7.29;100.00;100575.19;5113467;28;20031;-75
2022/10/19 04:39:39;;;;;;;19.50;10.88;;;;;;;7.28;100.00;100489.22;5095087;28;20639;-80
2022/10/19 04:42:05;;;;;;;26.48;9.77;;;;;;;10.43;100.00;100536.88;5094815;28;20108;-76
2022/10/19 04:44:30;;;;;;;25.35;15.20;;;;;;;7.43;100.00;100560.78;5112561;28;20537;-79
2022/10/19 04:46:55;;;;;;;22.45;11.82;;;;;;;7.87;100.00;100555.41;5112049;28;20012;-74
2022/10/19 04:49:21;;;;;;;26.75;15.95;;;;;;;8.28;100.00;100540.72;5094448;28;20020;-76
2022/10/19 04:51:46;;;;;;;28.45;14.40;;;;;;;7.75;100.00;100543.69;5112248;28;20028;-76
2022/10/19 04:54:12;;;;;;;27.48;14.25;;;;;;;7.25;100.00;100484.19;5093058;28;20019;-76
2022/10/19 04:56:38;;;;;;;25.58;14.32;;;;;;;7.50;100.00;100488.22;5093941;28;20030;-75
2022/10/19 04:59:03;;;;;;;40.28;29.67;;;;;;;7.50;100.00;100542.19;5112564;28;20030;-75
2022/10/19 05:01:29;;;;;;;42.55;33.00;;;;;;;7.90;100.00;100510.66;5112288;28;20623;-77
2022/10/19 05:03:57;;;;;;;52.72;34.50;;;;;;;7.25;100.00;100495.13;5112625;28;20030;-75
2022/10/19 05:06:23;;;;;;;47.72;36.97;;;;;;;7.20;100.00;100496.00;5094483;28;20024;-75
2022/10/19 05:08:49;;;;;;;48.13;35.47;;;;;;;6.76;100.00;100428.03;5112862;28;20458;-75
2022/10/19 05:11:15;;;;;;;39.15;27.92;;;;;;;7.37;100.00;100550.69;5112759;28;20035;-76
2022/10/19 05:13:41;;;;;;;36.25;24.83;;;;;;;7.60;100.00;100548.88;5112846;28;20027;-76
2022/10/19 05:16:09;;;;;;;32.08;22.08;;;;;;;7.29;100.00;100494.25;5112857;28;20443;-75
2022/10/19 05:18:35;;;;;;;32.17;22.25;;;;;;;10.48;100.00;100489.31;5094218;28;20106;-76
2022/10/19 05:21:08;;;;;;;34.45;22.40;;;;;;;11.86;100.00;100558.44;5112543;28;20536;-75
2022/10/19 05:23:35;;;;;;;33.90;20.42;;;;;;;12.24;100.00;100516.69;5094026;28;20019;-75
2022/10/19 05:26:05;;;;;;;27.40;19.45;;;;;;;12.99;100.00;100575.00;5112776;28;20031;-75
2022/10/19 05:28:31;;;;;;;31.80;19.63;;;;;;;13.84;100.00;100571.56;5112524;28;20214;-75
2022/10/19 05:31:05;;;;;;;32.17;19.90;;;;;;;14.06;100.00;100551.28;5111964;28;20490;-76
2022/10/19 05:33:31;;;;;;;29.95;15.52;;;;;;;13.85;100.00;100585.19;5094589;28;20028;-76
2022/10/19 05:35:56;;;;;;;23.23;13.27;;;;;;;13.52;100.00;100588.78;5111976;28;20031;-75
2022/10/19 05:38:21;;;;;;;19.27;12.18;;;;;;;14.06;100.00;100578.56;5093456;28;20035;-75
2022/10/19 05:40:47;;;;;;;14.90;10.77;;;;;;;13.26;100.00;100551.25;5111600;28;20047;-76
2022/10/19 05:43:12;;;;;;;22.67;11.38;;;;;;;12.73;100.00;100549.38;5112359;28;20158;-76
2022/10/19 05:45:38;;;;;;;26.80;12.40;;;;;;;12.15;100.00;100525.41;5112159;28;20209;-77
2022/10/19 05:48:03;;;;;;;21.90;12.18;;;;;;;12.49;100.00;100591.69;5112361;28;20054;-75
2022/10/19 05:50:29;;;;;;;23.48;12.45;;;;;;;13.53;100.00;100486.56;5111805;28;20409;-77
2022/10/19 05:52:54;;;;;;;25.80;12.05;;;;;;;12.40;100.00;100586.00;5094430;28;20027;-76
2022/10/19 05:55:19;;;;;;;25.38;11.75;;;;;;;13.05;100.00;100587.63;5111616;28;20038;-77
2022/10/19 05:57:45;;;;;;;17.75;10.40;;;;;;;11.72;100.00;100542.63;5111764;28;20011;-76
2022/10/19 06:00:11;;;;;;;23.15;10.98;;;;;;;13.12;100.00;100590.81;5111818;28;20028;-78
2022/10/19 06:02:36;;;;;;;14.52;10.07;;;;;;;11.32;100.00;100601.22;5111976;28;20658;-79
2022/10/19 06:05:01;;;;;;;17.88;10.70;;;;;;;10.67;100.00;100572.88;5094018;28;20028;-79
2022/10/19 06:07:27;;;;;;;17.45;11.55;;;;;;;10.42;100.00;100570.75;5094210;28;20069;-79
2022/10/19 06:09:52;;;;;;;23.98;13.20;;;;;;;9.42;100.00;100442.09;5111546;28;20039;-77
2022/10/19 06:12:19;;;;;;;22.80;12.25;;;;;;;10.35;100.00;100490.41;5094507;28;20096;-77
2022/10/19 06:14:44;;;;;;;20.40;10.05;;;;;;;10.74;100.00;100577.78;5112417;28;20042;-78
2022/10/19 06:17:10;;;;;;;14.90;8.05;;;;;;;10.62;100.00;100567.84;5112413;28;20031;-81
2022/10/19 06:19:35;;;;;;;18.30;8.35;;;;;;;10.85;100.00;100552.16;5111714;28;20031;-79
2022/10/19 06:22:01;;;;;;;13.43;7.63;;;;;;;10.94;100.00;100518.91;5112050;28;20053;-80
2022/10/19 06:24:26;;;;;;;11.95;8.07;;;;;;;10.97;100.00;100498.50;5093335;28;20016;-78
2022/10/19 06:26:51;;;;;;;16.88;8.25;;;;;;;11.06;100.00;100499.13;5093948;28;20060;-80
2022/10/19 06:29:17;;;;;;;14.55;7.57;;;;;;;11.59;100.00;100568.41;5093832;28;20413;-77
2022/10/19 06:31:42;;;;;;;12.65;7.93;;;;;;;11.20;100.00;100576.03;5111684;28;20035;-77
2022/10/19 06:34:08;;;;;;;12.27;7.38;;;;;;;11.29;100.00;100569.88;5111539;28;20051;-77
2022/10/19 06:36:34;;;;;;;12.20;6.85;;;;;;;11.47;100.00;100505.03;5093372;28;20032;-77
2022/10/19 06:39:00;;;;;;;17.63;7.00;;;;;;;11.23;100.00;100458.06;5093212;28;20074;-77
2022/10/19 06:41:26;;;;;;;12.50;7.63;;;;;;;12.27;100.00;100559.94;5111142;28;20556;-76
2022/10/19 06:43:53;;;;;;;13.80;7.53;;;;;;;12.13;100.00;100545.00;5111827;28;20038;-76
2022/10/19 06:46:22;;;;;;;15.63;8.02;;;;;;;12.03;100.00;100545.28;5111978;28;20034;-75
2022/10/19 06:48:56;;;;;;;14.50;8.30;;;;;;;12.03;100.00;100530.81;5112064;28;20115;-76
2022/10/19 06:51:22;;;;;;;14.95;8.77;;;;;;;11.71;100.00;100515.47;5096123;28;20035;-76
2022/10/19 06:53:48;;;;;;;19.80;8.25;;;;;;;11.74;100.00;100487.41;5115639;28;20134;-76
2022/10/19 06:56:13;;;;;;;16.80;8.30;;;;;;;12.52;100.00;100498.97;5115635;28;20486;-76
2022/10/19 06:58:39;;;;;;;14.55;8.45;;;;;;;12.85;100.00;100560.09;5115033;28;20093;-76
2022/10/19 07:01:09;;;;;;;16.63;7.85;;;;;;;12.63;100.00;100502.03;5097004;28;20103;-76
2022/10/19 07:03:35;;;;;;;15.85;7.38;;;;;;;13.60;100.00;100554.47;5114926;28;20140;-76
2022/10/19 07:06:04;;;;;;;14.18;8.43;;;;;;;12.84;100.00;100512.47;5115749;28;20031;-77
2022/10/19 07:08:31;;;;;;;15.00;7.97;;;;;;;13.26;100.00;100556.38;5115286;28;20035;-76
2022/10/19 07:11:02;;;;;;;15.07;8.27;;;;;;;13.59;100.00;100564.72;5114840;28;20043;-77
2022/10/19 07:13:28;;;;;;;13.45;7.80;;;;;;;12.60;100.00;100448.53;5115213;28;20542;-77
2022/10/19 07:15:59;;;;;;;11.98;8.65;;;;;;;13.03;100.00;100561.28;5115274;28;20027;-77
2022/10/19 07:18:26;;;;;;;10.02;7.25;;;;;;;13.17;100.00;100490.28;5114600;28;20031;-76
2022/10/19 07:20:59;;;;;;;16.30;7.53;;;;;;;14.21;100.00;100549.91;5115049;28;20031;-76
2022/10/19 07:23:26;;;;;;;16.08;7.82;;;;;;;14.29;100.00;100541.13;5096409;28;20512;-76
2022/10/19 07:25:54;;;;;;;10.40;7.35;;;;;;;13.79;100.00;100522.34;5114780;28;20084;-76
2022/10/19 07:28:22;;;;;;;10.85;7.18;;;;;;;14.52;100.00;100548.00;5114639;28;20051;-76
2022/10/19 07:30:48;;;;;;;14.38;6.70;;;;;;;13.77;100.00;100559.88;5114799;28;20029;-76
2022/10/19 07:33:13;;;;;;;10.90;7.13;;;;;;;13.30;100.00;100490.72;5114918;28;20039;-76
2022/10/19 07:35:38;;;;;;;11.82;6.22;;;;;;;14.26;100.00;100561.66;5115122;28;20026;-76
2022/10/19 07:38:04;;;;;;;12.35;6.43;;;;;;;14.19;100.00;100549.13;5114812;28;20039;-77
2022/10/19 07:40:29;;;;;;;13.50;6.40;;;;;;;14.07;100.00;100546.97;5114095;28;20506;-76
2022/10/19 07:42:55;;;;;;;9.23;6.55;;;;;;;14.15;100.00;100504.94;5096155;28;20048;-76
2022/10/19 07:45:21;;;;;;;10.75;6.15;;;;;;;13.51;100.00;100492.63;5113937;28;20051;-76
2022/10/19 07:47:46;;;;;;;13.63;6.03;;;;;;;14.05;100.00;100541.09;5114113;28;20034;-77
2022/10/19 07:50:11;;;;;;;8.35;6.13;;;;;;;14.18;100.00;100496.34;5114093;28;20039;-76
2022/10/19 07:52:37;;;;;;;9.35;6.25;;;;;;;14.49;100.00;100485.00;5114090;28;20123;-76
2022/10/19 07:55:03;;;;;;;12.32;7.30;;;;;;;14.64;100.00;100534.78;5114302;28;20024;-76
2022/10/19 07:57:28;;;;;;;13.05;7.63;;;;;;;14.14;100.00;100477.72;5095898;28;20028;-76
2022/10/19 07:59:53;;;;;;;21.00;8.85;;;;;;;14.62;100.00;100536.56;5114092;28;20031;-76
2022/10/19 08:02:19;;;;;;;15.63;7.75;;;;;;;15.44;100.00;100531.81;5114410;28;20478;-77
2022/10/19 08:04:44;;;;;;;13.05;8.10;;;;;;;14.32;100.00;100524.88;5114254;28;20031;-76
2022/10/19 08:07:10;;;;;;;15.65;8.48;;;;;;;15.47;100.00;100511.16;5114173;28;20024;-77
2022/10/19 08:09:36;;;;;;;19.50;7.80;;;;;;;15.37;100.00;100458.59;5114082;28;20084;-76
2022/10/19 08:12:03;;;;;;;18.05;8.23;;;;;;;14.48;100.00;100473.09;5113896;28;20038;-76
2022/10/19 08:14:28;;;;;;;15.38;7.78;;;;;;;15.29;100.00;100515.25;5114162;28;20043;-76
2022/10/19 08:16:53;;;;;;;15.30;8.27;;;;;;;14.92;100.00;100504.75;5096553;28;20160;-76
2022/10/19 08:19:21;;;;;;;13.45;8.60;;;;;;;15.24;100.00;100504.38;5095761;28;20516;-76
2022/10/19 08:21:47;;;;;;;16.42;8.05;;;;;;;14.60;100.00;100488.00;5113754;28;20028;-76
2022/10/19 08:24:15;;;;;;;12.60;7.82;;;;;;;14.31;100.00;100405.50;5095572;28;20115;-76
2022/10/19 08:26:42;;;;;;;12.90;7.95;;;;;;;14.61;100.00;100412.91;5113961;28;20024;-75
2022/10/19 08:29:09;;;;;;;14.27;8.25;;;;;;;15.50;100.00;100495.69;5113839;28;20547;-76
2022/10/19 08:31:35;;;;;;;12.40;8.18;;;;;;;15.78;100.00;100492.84;5095043;28;20040;-76
2022/10/19 08:34:01;;;;;;;13.13;7.95;;;;;;;15.15;100.00;100460.34;5113789;28;20035;-76
2022/10/19 08:36:29;;;;;;;18.38;8.32;;;;;;;15.61;100.00;100386.69;5095423;28;20122;-77
2022/10/19 08:38:55;;;;;;;16.90;8.40;;;;;;;16.17;100.00;100489.44;5113397;28;20407;-76
2022/10/19 08:41:26;;;;;;;10.45;6.43;;;;;;;15.57;100.00;100456.09;5113294;28;20110;-76
2022/10/19 08:44:50;;;;;;;12.77;6.68;;;;;;;16.61;100.00;100464.44;5113496;28;20039;-76
2022/10/19 08:47:33;;;;;;;12.18;6.75;;;;;;;16.39;100.00;100471.41;4993191;28;20593;-76
2022/10/19 08:49:59;;;;;;;13.90;6.32;;;;;;;16.86;100.00;100443.59;5105249;28;20036;-75
2022/10/19 08:52:31;;;;;;;15.82;6.72;;;;;;;15.56;100.00;100437.34;5113218;28;20023;-77
2022/10/19 08:54:59;;;;;;;9.77;6.18;;;;;;;15.62;100.00;100441.38;5094585;28;20027;-76
2022/10/19 08:57:56;;;;;;;13.00;6.00;;;;;;;16.41;100.00;100469.59;5094975;28;20027;-76
2022/10/19 09:00:41;;;;;;;13.93;6.22;;;;;;;16.57;100.00;100460.34;5113497;28;20032;-76
2022/10/19 09:03:45;;;;;;;12.18;6.03;;;;;;;17.31;100.00;100393.44;5113226;28;20023;-77
2022/10/19 09:06:22;;;;;;;13.25;7.63;;;;;;;17.75;100.00;100447.00;5112934;28;20055;-76
2022/10/19 09:08:50;;;;;;;17.15;7.13;;;;;;;17.94;100.00;100447.78;5094373;28;20482;-76
2022/10/19 09:11:24;;;;;;;13.98;7.82;;;;;;;17.58;100.00;100377.59;5112459;28;20062;-77
2022/10/19 09:13:59;;;;;;;13.00;6.72;;;;;;;17.25;100.00;100434.03;5112876;28;20026;-76
2022/10/19 09:16:24;;;;;;;13.40;6.65;;;;;;;17.11;100.00;100373.00;5112589;28;20115;-76
2022/10/19 09:18:50;;;;;;;11.57;6.53;;;;;;;18.11;100.00;100422.00;5113346;28;20058;-74
2022/10/19 09:21:20;;;;;;;16.30;8.00;;;;;;;18.09;100.00;100434.94;5112212;28;20027;-75
2022/10/19 09:23:57;;;;;;;8.23;6.07;;;;;;;18.10;100.00;100374.03;5112026;28;20024;-77
2022/10/19 09:26:27;;;;;;;10.57;6.03;;;;;;;18.39;100.00;100367.31;5111969;28;20020;-73
2022/10/19 09:29:25;;;;;;;11.23;5.22;;;;;;;17.92;100.00;100403.28;5093496;28;20051;-74
2022/10/19 09:31:57;;;;;;;8.75;5.15;;;;;;;18.64;100.00;100407.13;5111884;28;20077;-75
2022/10/19 09:34:32;;;;;;;8.02;4.60;;;;;;;18.97;100.00;100417.38;5112327;28;20043;-75
2022/10/19 09:36:58;;;;;;;8.80;4.97;;;;;;;18.35;100.00;100369.22;5093629;28;20084;-79
2022/10/19 09:39:26;;;;;;;13.02;4.93;;;;;;;18.54;100.00;100357.03;5112120;28;20673;-75
2022/10/19 09:41:58;;;;;;;5.82;3.90;;;;;;;18.53;100.00;100388.88;5113048;28;20054;-77
2022/10/19 09:44:25;;;;;;;6.05;4.15;;;;;;;18.78;100.00;100384.03;5111527;28;20100;-75
2022/10/19 09:46:56;;;;;;;8.88;4.32;;;;;;;18.82;100.00;100331.41;5112554;28;20059;-77
2022/10/19 09:49:38;;;;;;;8.07;4.10;;;;;;;19.03;100.00;100393.81;5111999;28;20097;-76
2022/10/19 09:52:04;;;;;;;11.18;4.60;;;;;;;19.14;96.46;100406.09;5111694;28;20502;-75
2022/10/19 09:54:36;;;;;;;8.82;4.50;;;;;;;19.03;96.03;100376.59;5093136;28;20036;-75
2022/10/19 09:57:03;;;;;;;10.52;4.63;;;;;;;19.47;85.63;100381.81;5093580;28;20032;-74
2022/10/19 09:59:37;;;;;;;7.55;4.20;;;;;;;18.68;90.45;100279.84;5093392;28;20089;-75
2022/10/19 10:02:13;;;;;;;5.88;3.90;;;;;;;20.06;88.84;100367.97;5111819;28;20028;-75
2022/10/19 10:04:38;;;;;;;9.70;3.83;;;;;;;20.21;80.46;100310.25;5092965;28;20118;-74
2022/10/19 10:07:04;;;;;;;8.52;3.90;;;;;;;20.52;76.78;100320.31;5094024;28;20027;-74
2022/10/19 10:09:30;;;;;;;9.25;4.25;;;;;;;20.11;81.52;100305.72;5111746;28;20118;-75
2022/10/19 10:11:58;;;;;;;8.32;3.83;;;;;;;20.24;80.03;100306.66;5110828;28;20504;-74
2022/10/19 10:14:35;;;;;;;7.88;3.55;;;;;;;20.17;76.97;100355.22;5110710;28;20035;-74
2022/10/19 10:17:15;;;;;;;7.65;3.45;;;;;;;19.98;75.73;100361.63;5111097;28;20023;-74
2022/10/19 10:20:00;;;;;;;8.82;3.20;;;;;;;20.43;71.43;100287.31;5093193;28;20423;-74
2022/10/19 10:22:29;;;;;;;5.57;3.35;;;;;;;21.22;71.25;100342.47;5111292;28;20031;-75
2022/10/19 10:24:55;;;;;;;12.25;3.80;;;;;;;20.94;75.89;100339.16;5112468;28;20031;-74
2022/10/19 10:27:28;;;;;;;8.52;3.42;;;;;;;20.99;71.28;100290.59;5114900;28;20023;-75
2022/10/19 10:29:55;;;;;;;4.97;3.13;;;;;;;20.13;74.41;100285.78;5115482;28;20038;-74
2022/10/19 10:32:21;;;;;;;9.93;3.50;;;;;;;20.77;70.48;100319.59;5115324;28;20027;-74
2022/10/19 10:35:05;;;;;;;7.68;3.53;;;;;;;21.18;72.12;100324.66;5114925;28;20028;-75
2022/10/19 10:37:49;;;;;;;9.18;4.25;;;;;;;20.89;71.54;100320.53;5096807;28;20019;-74
2022/10/19 10:40:26;;;;;;;10.05;4.43;;;;;;;21.22;68.07;100305.44;5115125;28;20043;-74
2022/10/19 10:42:54;;;;;;;12.10;4.00;;;;;;;21.54;64.97;100214.38;5114637;28;20031;-73
2022/10/19 10:45:32;;;;;;;6.75;4.13;;;;;;;21.88;64.06;100297.47;5114824;28;20028;-74
2022/10/19 10:48:11;;;;;;;8.80;4.20;;;;;;;21.55;66.30;100298.81;5115111;28;20041;-75
2022/10/19 10:50:37;;;;;;;10.20;4.60;;;;;;;21.88;66.70;100297.47;5096599;28;20421;-76
2022/10/19 10:53:26;;;;;;;9.38;4.30;;;;;;;21.73;67.33;100288.97;5114988;28;20020;-76
2022/10/19 10:55:56;;;;;;;10.98;4.93;;;;;;;21.33;65.56;100279.69;5114830;28;20562;-74
2022/10/19 10:58:30;;;;;;;7.70;4.13;;;;;;;21.62;64.41;100268.16;5096975;28;20117;-74
2022/10/19 11:00:58;;;;;;;10.35;4.32;;;;;;;21.88;62.37;100259.47;5114777;28;20076;-73
2022/10/19 11:03:28;;;;;;;8.63;4.60;;;;;;;22.10;63.45;100259.63;5114572;28;20023;-75
2022/10/19 11:06:01;;;;;;;8.50;4.22;;;;;;;21.75;61.14;100209.44;5114236;28;20046;-75
2022/10/19 11:08:51;;;;;;;8.23;3.85;;;;;;;21.84;61.15;100258.03;5096607;28;20038;-74
2022/10/19 11:11:35;;;;;;;7.05;4.03;;;;;;;22.22;60.83;100208.69;5114541;28;20031;-74
2022/10/19 11:14:46;;;;;;;11.15;4.85;;;;;;;22.20;59.71;100245.06;5114704;28;20096;-74
2022/10/19 11:17:28;;;;;;;7.80;3.83;;;;;;;22.08;59.40;100239.94;5092885;28;20036;-74
2022/10/19 11:19:54;;;;;;;7.82;3.92;;;;;;;22.16;58.58;100237.63;5096345;28;20039;-74
2022/10/19 11:22:50;;;;;;;7.50;3.42;;;;;;;22.86;54.16;100236.75;5114511;28;20379;-74
2022/10/19 11:25:29;;;;;;;5.57;3.00;;;;;;;22.34;53.76;100189.66;5110052;28;20490;-74